sensor_id;sensor_type;location;lat;lon;timestamp;P1;durP1;ratioP1;P2;durP2;ratioP2
25231;SDS011;13176;51.140;6.290;2022-12-11T00:00:43;69.18;;;45.72;;
25231;SDS011;13176;51.140;6.290;2022-12-11T00:03:10;70.88;;;46.65;;
25231;SDS011;13176;51.140;6.290;2022-12-11T00:05:41;70.13;;;46.40;;
25231;SDS011;13176;51.140;6.290;2022-12-11T00:08:09;65.97;;;44.80;;
25231;SDS011;13176;51.140;6.290;2022-12-11T00:10:36;71.68;;;44.50;;
25231;SDS011;13176;51.140;6.290;2022-12-11T00:13:03;64.68;;;43.70;;
25231;SDS011;13176;51.140;6.290;2022-12-11T00:15:30;71.28;;;45.10;;
25231;SDS011;13176;51.140;6.290;2022-12-11T00:17:56;68.55;;;44.97;;
25231;SDS011;13176;51.140;6.290;2022-12-11T00:20:23;64.18;;;43.88;;
25231;SDS011;13176;51.140;6.290;2022-12-11T00:22:49;59.22;;;42.05;;
25231;SDS011;13176;51.140;6.290;2022-12-11T00:25:16;59.92;;;42.97;;
25231;SDS011;13176;51.140;6.290;2022-12-11T00:27:44;65.80;;;42.97;;
25231;SDS011;13176;51.140;6.290;2022-12-11T00:30:11;59.70;;;42.67;;
25231;SDS011;13176;51.140;6.290;2022-12-11T00:32:37;57.70;;;38.90;;
25231;SDS011;13176;51.140;6.290;2022-12-11T00:35:04;59.60;;;40.15;;
25231;SDS011;13176;51.140;6.290;2022-12-11T00:37:31;58.60;;;41.33;;
25231;SDS011;13176;51.140;6.290;2022-12-11T00:39:57;54.17;;;39.63;;
25231;SDS011;13176;51.140;6.290;2022-12-11T00:42:23;53.45;;;40.22;;
25231;SDS011;13176;51.140;6.290;2022-12-11T00:44:50;56.15;;;37.55;;
25231;SDS011;13176;51.140;6.290;2022-12-11T00:47:17;55.53;;;38.58;;
25231;SDS011;13176;51.140;6.290;2022-12-11T00:49:43;57.53;;;36.70;;
25231;SDS011;13176;51.140;6.290;2022-12-11T00:52:15;57.35;;;37.25;;
25231;SDS011;13176;51.140;6.290;2022-12-11T00:54:43;52.53;;;36.42;;
25231;SDS011;13176;51.140;6.290;2022-12-11T00:57:09;50.83;;;36.08;;
25231;SDS011;13176;51.140;6.290;2022-12-11T00:59:35;49.92;;;35.35;;
25231;SDS011;13176;51.140;6.290;2022-12-11T01:02:02;49.08;;;34.33;;
25231;SDS011;13176;51.140;6.290;2022-12-11T01:04:28;47.25;;;33.47;;
25231;SDS011;13176;51.140;6.290;2022-12-11T01:06:55;55.40;;;35.45;;
25231;SDS011;13176;51.140;6.290;2022-12-11T01:09:21;48.30;;;32.97;;
25231;SDS011;13176;51.140;6.290;2022-12-11T01:12:06;45.38;;;32.15;;
25231;SDS011;13176;51.140;6.290;2022-12-11T01:14:32;44.00;;;30.45;;
25231;SDS011;13176;51.140;6.290;2022-12-11T01:16:59;43.67;;;32.20;;
25231;SDS011;13176;51.140;6.290;2022-12-11T01:19:25;49.67;;;33.85;;
25231;SDS011;13176;51.140;6.290;2022-12-11T01:21:52;44.67;;;31.63;;
25231;SDS011;13176;51.140;6.290;2022-12-11T01:24:18;46.78;;;32.08;;
25231;SDS011;13176;51.140;6.290;2022-12-11T01:26:45;46.10;;;32.53;;
25231;SDS011;13176;51.140;6.290;2022-12-11T01:29:11;41.90;;;31.23;;
25231;SDS011;13176;51.140;6.290;2022-12-11T01:31:37;46.47;;;33.53;;
25231;SDS011;13176;51.140;6.290;2022-12-11T01:34:04;39.85;;;32.13;;
25231;SDS011;13176;51.140;6.290;2022-12-11T01:36:30;48.35;;;34.17;;
25231;SDS011;13176;51.140;6.290;2022-12-11T01:38:56;44.33;;;32.45;;
25231;SDS011;13176;51.140;6.290;2022-12-11T01:41:23;47.13;;;31.13;;
25231;SDS011;13176;51.140;6.290;2022-12-11T01:46:41;45.22;;;32.65;;
25231;SDS011;13176;51.140;6.290;2022-12-11T01:49:09;43.85;;;32.42;;
25231;SDS011;13176;51.140;6.290;2022-12-11T01:51:40;41.55;;;29.88;;
25231;SDS011;13176;51.140;6.290;2022-12-11T01:54:14;46.85;;;31.45;;
25231;SDS011;13176;51.140;6.290;2022-12-11T01:56:43;41.20;;;29.17;;
25231;SDS011;13176;51.140;6.290;2022-12-11T01:59:11;38.53;;;28.75;;
25231;SDS011;13176;51.140;6.290;2022-12-11T02:01:44;37.83;;;29.88;;
25231;SDS011;13176;51.140;6.290;2022-12-11T02:04:19;38.30;;;28.58;;
25231;SDS011;13176;51.140;6.290;2022-12-11T02:06:47;38.33;;;28.50;;
25231;SDS011;13176;51.140;6.290;2022-12-11T02:09:16;38.28;;;29.13;;
25231;SDS011;13176;51.140;6.290;2022-12-11T02:11:51;36.58;;;28.65;;
25231;SDS011;13176;51.140;6.290;2022-12-11T02:14:36;38.10;;;30.42;;
25231;SDS011;13176;51.140;6.290;2022-12-11T02:17:12;38.13;;;30.45;;
25231;SDS011;13176;51.140;6.290;2022-12-11T02:20:00;41.38;;;31.63;;
25231;SDS011;13176;51.140;6.290;2022-12-11T02:30:47;42.17;;;31.58;;
25231;SDS011;13176;51.140;6.290;2022-12-11T02:33:17;41.35;;;31.92;;
25231;SDS011;13176;51.140;6.290;2022-12-11T02:35:48;42.30;;;31.65;;
25231;SDS011;13176;51.140;6.290;2022-12-11T02:38:18;37.10;;;30.83;;
25231;SDS011;13176;51.140;6.290;2022-12-11T02:40:49;42.35;;;31.92;;
25231;SDS011;13176;51.140;6.290;2022-12-11T02:43:18;41.80;;;29.73;;
25231;SDS011;13176;51.140;6.290;2022-12-11T02:45:47;40.80;;;31.02;;
25231;SDS011;13176;51.140;6.290;2022-12-11T02:48:16;42.15;;;31.52;;
25231;SDS011;13176;51.140;6.290;2022-12-11T02:50:46;39.20;;;30.55;;
25231;SDS011;13176;51.140;6.290;2022-12-11T02:53:15;37.20;;;28.42;;
25231;SDS011;13176;51.140;6.290;2022-12-11T02:55:45;37.63;;;28.75;;
25231;SDS011;13176;51.140;6.290;2022-12-11T02:58:16;34.40;;;27.58;;
25231;SDS011;13176;51.140;6.290;2022-12-11T03:00:44;38.33;;;27.52;;
25231;SDS011;13176;51.140;6.290;2022-12-11T03:03:11;39.05;;;29.20;;
25231;SDS011;13176;51.140;6.290;2022-12-11T03:05:39;37.72;;;28.70;;
25231;SDS011;13176;51.140;6.290;2022-12-11T03:08:07;35.33;;;27.90;;
25231;SDS011;13176;51.140;6.290;2022-12-11T03:10:33;36.80;;;29.02;;
25231;SDS011;13176;51.140;6.290;2022-12-11T03:13:00;33.40;;;25.42;;
25231;SDS011;13176;51.140;6.290;2022-12-11T03:15:33;36.90;;;27.25;;
25231;SDS011;13176;51.140;6.290;2022-12-11T03:18:15;33.17;;;27.00;;
25231;SDS011;13176;51.140;6.290;2022-12-11T03:20:43;33.30;;;26.95;;
25231;SDS011;13176;51.140;6.290;2022-12-11T03:26:02;38.72;;;27.00;;
25231;SDS011;13176;51.140;6.290;2022-12-11T03:28:40;34.22;;;25.30;;
25231;SDS011;13176;51.140;6.290;2022-12-11T03:34:32;33.33;;;25.70;;
25231;SDS011;13176;51.140;6.290;2022-12-11T03:37:06;36.13;;;26.05;;
25231;SDS011;13176;51.140;6.290;2022-12-11T03:39:35;33.65;;;25.27;;
25231;SDS011;13176;51.140;6.290;2022-12-11T03:42:07;30.23;;;24.65;;
25231;SDS011;13176;51.140;6.290;2022-12-11T03:44:36;40.40;;;27.95;;
25231;SDS011;13176;51.140;6.290;2022-12-11T03:47:04;30.98;;;25.83;;
25231;SDS011;13176;51.140;6.290;2022-12-11T03:49:34;33.85;;;26.42;;
25231;SDS011;13176;51.140;6.290;2022-12-11T03:52:07;37.90;;;26.40;;
25231;SDS011;13176;51.140;6.290;2022-12-11T03:54:37;37.03;;;26.02;;
25231;SDS011;13176;51.140;6.290;2022-12-11T03:57:05;31.98;;;26.65;;
25231;SDS011;13176;51.140;6.290;2022-12-11T03:59:33;37.33;;;26.73;;
25231;SDS011;13176;51.140;6.290;2022-12-11T04:01:59;38.28;;;27.02;;
25231;SDS011;13176;51.140;6.290;2022-12-11T04:04:26;37.08;;;27.55;;
25231;SDS011;13176;51.140;6.290;2022-12-11T04:06:53;31.30;;;24.77;;
25231;SDS011;13176;51.140;6.290;2022-12-11T04:09:19;36.13;;;26.65;;
25231;SDS011;13176;51.140;6.290;2022-12-11T04:11:45;37.70;;;26.35;;
25231;SDS011;13176;51.140;6.290;2022-12-11T04:14:13;32.22;;;25.50;;
25231;SDS011;13176;51.140;6.290;2022-12-11T04:16:58;34.58;;;26.20;;
25231;SDS011;13176;51.140;6.290;2022-12-11T04:19:26;34.70;;;26.98;;
25231;SDS011;13176;51.140;6.290;2022-12-11T04:22:11;31.00;;;25.92;;
25231;SDS011;13176;51.140;6.290;2022-12-11T04:24:58;34.25;;;26.42;;
25231;SDS011;13176;51.140;6.290;2022-12-11T04:27:25;31.45;;;25.38;;
25231;SDS011;13176;51.140;6.290;2022-12-11T04:30:20;30.35;;;26.10;;
25231;SDS011;13176;51.140;6.290;2022-12-11T04:32:51;33.10;;;26.20;;
25231;SDS011;13176;51.140;6.290;2022-12-11T04:35:19;30.33;;;25.92;;
25231;SDS011;13176;51.140;6.290;2022-12-11T04:37:46;35.30;;;25.95;;
25231;SDS011;13176;51.140;6.290;2022-12-11T04:40:14;33.85;;;25.80;;
25231;SDS011;13176;51.140;6.290;2022-12-11T04:42:42;39.05;;;29.77;;
25231;SDS011;13176;51.140;6.290;2022-12-11T04:45:09;33.28;;;28.90;;
25231;SDS011;13176;51.140;6.290;2022-12-11T04:47:37;32.35;;;26.30;;
25231;SDS011;13176;51.140;6.290;2022-12-11T04:50:05;31.63;;;25.75;;
25231;SDS011;13176;51.140;6.290;2022-12-11T04:52:32;34.08;;;25.90;;
25231;SDS011;13176;51.140;6.290;2022-12-11T04:54:59;31.92;;;25.83;;
25231;SDS011;13176;51.140;6.290;2022-12-11T04:57:25;30.95;;;25.63;;
25231;SDS011;13176;51.140;6.290;2022-12-11T04:59:51;35.63;;;27.48;;
25231;SDS011;13176;51.140;6.290;2022-12-11T05:02:18;31.48;;;27.20;;
25231;SDS011;13176;51.140;6.290;2022-12-11T05:04:44;32.10;;;26.77;;
25231;SDS011;13176;51.140;6.290;2022-12-11T05:07:11;30.75;;;26.95;;
25231;SDS011;13176;51.140;6.290;2022-12-11T05:09:37;31.08;;;26.05;;
25231;SDS011;13176;51.140;6.290;2022-12-11T05:12:03;30.85;;;26.60;;
25231;SDS011;13176;51.140;6.290;2022-12-11T05:14:30;30.50;;;25.88;;
25231;SDS011;13176;51.140;6.290;2022-12-11T05:16:58;28.88;;;25.60;;
25231;SDS011;13176;51.140;6.290;2022-12-11T05:19:24;30.10;;;26.08;;
25231;SDS011;13176;51.140;6.290;2022-12-11T05:21:52;31.05;;;26.00;;
25231;SDS011;13176;51.140;6.290;2022-12-11T05:24:18;29.77;;;24.90;;
25231;SDS011;13176;51.140;6.290;2022-12-11T05:26:44;32.25;;;26.00;;
25231;SDS011;13176;51.140;6.290;2022-12-11T05:29:11;29.10;;;25.90;;
25231;SDS011;13176;51.140;6.290;2022-12-11T05:31:37;29.73;;;24.77;;
25231;SDS011;13176;51.140;6.290;2022-12-11T05:34:04;27.35;;;24.48;;
25231;SDS011;13176;51.140;6.290;2022-12-11T05:36:31;28.63;;;25.63;;
25231;SDS011;13176;51.140;6.290;2022-12-11T05:38:59;27.30;;;24.42;;
25231;SDS011;13176;51.140;6.290;2022-12-11T05:41:26;27.52;;;24.73;;
25231;SDS011;13176;51.140;6.290;2022-12-11T05:43:54;26.55;;;23.88;;
25231;SDS011;13176;51.140;6.290;2022-12-11T05:46:22;26.38;;;23.52;;
25231;SDS011;13176;51.140;6.290;2022-12-11T05:48:51;26.58;;;23.50;;
25231;SDS011;13176;51.140;6.290;2022-12-11T05:51:20;26.17;;;23.48;;
25231;SDS011;13176;51.140;6.290;2022-12-11T05:53:46;25.17;;;22.02;;
25231;SDS011;13176;51.140;6.290;2022-12-11T05:56:16;25.85;;;21.55;;
25231;SDS011;13176;51.140;6.290;2022-12-11T05:58:45;24.75;;;21.55;;
25231;SDS011;13176;51.140;6.290;2022-12-11T06:01:23;25.40;;;22.85;;
25231;SDS011;13176;51.140;6.290;2022-12-11T06:03:52;24.70;;;22.25;;
25231;SDS011;13176;51.140;6.290;2022-12-11T06:06:19;28.23;;;21.02;;
25231;SDS011;13176;51.140;6.290;2022-12-11T06:08:48;22.55;;;20.02;;
25231;SDS011;13176;51.140;6.290;2022-12-11T06:11:16;22.00;;;19.70;;
25231;SDS011;13176;51.140;6.290;2022-12-11T06:13:49;20.00;;;17.60;;
25231;SDS011;13176;51.140;6.290;2022-12-11T06:16:15;22.80;;;19.13;;
25231;SDS011;13176;51.140;6.290;2022-12-11T06:18:42;20.67;;;17.83;;
25231;SDS011;13176;51.140;6.290;2022-12-11T06:21:14;20.77;;;18.25;;
25231;SDS011;13176;51.140;6.290;2022-12-11T06:23:41;21.00;;;17.90;;
25231;SDS011;13176;51.140;6.290;2022-12-11T06:26:08;19.60;;;17.70;;
25231;SDS011;13176;51.140;6.290;2022-12-11T06:28:36;23.85;;;19.40;;
25231;SDS011;13176;51.140;6.290;2022-12-11T06:31:03;20.23;;;18.02;;
25231;SDS011;13176;51.140;6.290;2022-12-11T06:33:30;20.67;;;18.13;;
25231;SDS011;13176;51.140;6.290;2022-12-11T06:36:00;19.48;;;17.38;;
25231;SDS011;13176;51.140;6.290;2022-12-11T06:38:30;20.20;;;16.67;;
25231;SDS011;13176;51.140;6.290;2022-12-11T06:40:58;19.65;;;17.60;;
25231;SDS011;13176;51.140;6.290;2022-12-11T06:43:26;21.23;;;17.30;;
25231;SDS011;13176;51.140;6.290;2022-12-11T06:45:52;21.35;;;16.58;;
25231;SDS011;13176;51.140;6.290;2022-12-11T06:48:21;20.30;;;16.83;;
25231;SDS011;13176;51.140;6.290;2022-12-11T06:50:48;18.30;;;16.45;;
25231;SDS011;13176;51.140;6.290;2022-12-11T06:53:16;19.00;;;16.77;;
25231;SDS011;13176;51.140;6.290;2022-12-11T06:55:42;20.10;;;16.90;;
25231;SDS011;13176;51.140;6.290;2022-12-11T06:58:09;18.27;;;16.35;;
25231;SDS011;13176;51.140;6.290;2022-12-11T07:00:36;19.00;;;17.02;;
25231;SDS011;13176;51.140;6.290;2022-12-11T07:03:04;21.45;;;19.13;;
25231;SDS011;13176;51.140;6.290;2022-12-11T07:05:31;19.67;;;17.70;;
25231;SDS011;13176;51.140;6.290;2022-12-11T07:07:57;20.17;;;17.92;;
25231;SDS011;13176;51.140;6.290;2022-12-11T07:10:24;19.42;;;17.33;;
25231;SDS011;13176;51.140;6.290;2022-12-11T07:12:51;19.83;;;17.88;;
25231;SDS011;13176;51.140;6.290;2022-12-11T07:15:18;18.88;;;16.92;;
25231;SDS011;13176;51.140;6.290;2022-12-11T07:17:45;20.42;;;18.27;;
25231;SDS011;13176;51.140;6.290;2022-12-11T07:20:11;18.45;;;16.65;;
25231;SDS011;13176;51.140;6.290;2022-12-11T07:22:38;18.70;;;16.70;;
25231;SDS011;13176;51.140;6.290;2022-12-11T07:25:11;18.63;;;16.70;;
25231;SDS011;13176;51.140;6.290;2022-12-11T07:27:38;22.02;;;17.52;;
25231;SDS011;13176;51.140;6.290;2022-12-11T07:30:05;20.05;;;17.95;;
25231;SDS011;13176;51.140;6.290;2022-12-11T07:32:31;19.38;;;17.38;;
25231;SDS011;13176;51.140;6.290;2022-12-11T07:34:58;19.15;;;17.20;;
25231;SDS011;13176;51.140;6.290;2022-12-11T07:37:24;21.75;;;18.00;;
25231;SDS011;13176;51.140;6.290;2022-12-11T07:39:51;19.42;;;17.35;;
25231;SDS011;13176;51.140;6.290;2022-12-11T07:42:17;18.63;;;16.73;;
25231;SDS011;13176;51.140;6.290;2022-12-11T07:44:44;18.63;;;16.65;;
25231;SDS011;13176;51.140;6.290;2022-12-11T07:47:10;20.25;;;17.23;;
25231;SDS011;13176;51.140;6.290;2022-12-11T07:49:36;19.25;;;17.17;;
25231;SDS011;13176;51.140;6.290;2022-12-11T07:52:03;17.42;;;15.63;;
25231;SDS011;13176;51.140;6.290;2022-12-11T07:54:29;19.60;;;17.55;;
25231;SDS011;13176;51.140;6.290;2022-12-11T07:57:00;18.08;;;16.27;;
25231;SDS011;13176;51.140;6.290;2022-12-11T07:59:42;18.92;;;16.77;;
25231;SDS011;13176;51.140;6.290;2022-12-11T08:02:11;18.48;;;16.63;;
25231;SDS011;13176;51.140;6.290;2022-12-11T08:04:40;18.27;;;16.48;;
25231;SDS011;13176;51.140;6.290;2022-12-11T08:07:09;17.65;;;15.88;;
25231;SDS011;13176;51.140;6.290;2022-12-11T08:09:37;19.15;;;15.98;;
25231;SDS011;13176;51.140;6.290;2022-12-11T08:12:04;16.75;;;15.05;;
25231;SDS011;13176;51.140;6.290;2022-12-11T08:14:30;16.65;;;14.85;;
25231;SDS011;13176;51.140;6.290;2022-12-11T08:16:57;16.25;;;14.60;;
25231;SDS011;13176;51.140;6.290;2022-12-11T08:19:25;16.65;;;14.90;;
25231;SDS011;13176;51.140;6.290;2022-12-11T08:21:51;15.07;;;13.63;;
25231;SDS011;13176;51.140;6.290;2022-12-11T08:24:18;15.20;;;13.80;;
25231;SDS011;13176;51.140;6.290;2022-12-11T08:26:46;15.02;;;13.52;;
25231;SDS011;13176;51.140;6.290;2022-12-11T08:29:13;14.45;;;12.95;;
25231;SDS011;13176;51.140;6.290;2022-12-11T08:31:40;13.88;;;12.57;;
25231;SDS011;13176;51.140;6.290;2022-12-11T08:34:07;14.45;;;13.05;;
25231;SDS011;13176;51.140;6.290;2022-12-11T08:36:33;14.73;;;13.23;;
25231;SDS011;13176;51.140;6.290;2022-12-11T08:38:59;14.45;;;12.98;;
25231;SDS011;13176;51.140;6.290;2022-12-11T08:41:27;14.68;;;13.38;;
25231;SDS011;13176;51.140;6.290;2022-12-11T08:43:55;15.35;;;13.43;;
25231;SDS011;13176;51.140;6.290;2022-12-11T08:46:24;14.85;;;13.18;;
25231;SDS011;13176;51.140;6.290;2022-12-11T08:48:53;14.88;;;13.30;;
25231;SDS011;13176;51.140;6.290;2022-12-11T08:51:21;14.02;;;12.52;;
25231;SDS011;13176;51.140;6.290;2022-12-11T08:53:49;13.40;;;12.20;;
25231;SDS011;13176;51.140;6.290;2022-12-11T08:56:26;12.90;;;11.43;;
25231;SDS011;13176;51.140;6.290;2022-12-11T08:58:54;13.00;;;11.80;;
25231;SDS011;13176;51.140;6.290;2022-12-11T09:01:22;14.18;;;12.88;;
25231;SDS011;13176;51.140;6.290;2022-12-11T09:03:50;14.30;;;12.90;;
25231;SDS011;13176;51.140;6.290;2022-12-11T09:06:18;14.82;;;13.32;;
25231;SDS011;13176;51.140;6.290;2022-12-11T09:08:46;14.63;;;13.32;;
25231;SDS011;13176;51.140;6.290;2022-12-11T09:11:19;14.75;;;13.55;;
25231;SDS011;13176;51.140;6.290;2022-12-11T09:13:52;14.45;;;13.02;;
25231;SDS011;13176;51.140;6.290;2022-12-11T09:16:20;15.25;;;13.75;;
25231;SDS011;13176;51.140;6.290;2022-12-11T09:18:49;14.68;;;13.32;;
25231;SDS011;13176;51.140;6.290;2022-12-11T09:21:17;15.95;;;14.45;;
25231;SDS011;13176;51.140;6.290;2022-12-11T09:23:45;14.13;;;12.73;;
25231;SDS011;13176;51.140;6.290;2022-12-11T09:26:13;18.52;;;14.80;;
25231;SDS011;13176;51.140;6.290;2022-12-11T09:28:41;16.88;;;15.23;;
25231;SDS011;13176;51.140;6.290;2022-12-11T09:31:14;17.45;;;15.70;;
25231;SDS011;13176;51.140;6.290;2022-12-11T09:33:42;17.23;;;15.73;;
25231;SDS011;13176;51.140;6.290;2022-12-11T09:36:09;17.45;;;15.85;;
25231;SDS011;13176;51.140;6.290;2022-12-11T09:38:37;18.58;;;16.77;;
25231;SDS011;13176;51.140;6.290;2022-12-11T09:46:27;16.77;;;15.10;;
25231;SDS011;13176;51.140;6.290;2022-12-11T09:48:59;15.95;;;14.40;;
25231;SDS011;13176;51.140;6.290;2022-12-11T09:51:33;15.40;;;13.85;;
25231;SDS011;13176;51.140;6.290;2022-12-11T09:54:05;13.57;;;12.20;;
25231;SDS011;13176;51.140;6.290;2022-12-11T09:56:32;14.48;;;13.10;;
25231;SDS011;13176;51.140;6.290;2022-12-11T10:01:48;16.73;;;15.23;;
25231;SDS011;13176;51.140;6.290;2022-12-11T10:07:11;19.58;;;17.73;;
25231;SDS011;13176;51.140;6.290;2022-12-11T10:12:25;19.50;;;17.52;;
25231;SDS011;13176;51.140;6.290;2022-12-11T10:15:03;19.75;;;17.85;;
25231;SDS011;13176;51.140;6.290;2022-12-11T10:17:36;19.58;;;17.67;;
25231;SDS011;13176;51.140;6.290;2022-12-11T10:20:24;20.48;;;18.38;;
25231;SDS011;13176;51.140;6.290;2022-12-11T10:22:53;19.23;;;17.30;;
25231;SDS011;13176;51.140;6.290;2022-12-11T10:27:59;20.80;;;18.63;;
25231;SDS011;13176;51.140;6.290;2022-12-11T10:30:36;20.77;;;18.58;;
25231;SDS011;13176;51.140;6.290;2022-12-11T10:35:50;19.30;;;17.45;;
25231;SDS011;13176;51.140;6.290;2022-12-11T10:38:32;18.25;;;16.55;;
25231;SDS011;13176;51.140;6.290;2022-12-11T10:41:04;18.98;;;17.13;;
25231;SDS011;13176;51.140;6.290;2022-12-11T10:43:37;19.55;;;17.65;;
25231;SDS011;13176;51.140;6.290;2022-12-11T10:46:06;18.98;;;17.08;;
25231;SDS011;13176;51.140;6.290;2022-12-11T10:48:47;20.60;;;18.40;;
25231;SDS011;13176;51.140;6.290;2022-12-11T10:51:20;17.10;;;15.40;;
25231;SDS011;13176;51.140;6.290;2022-12-11T10:53:54;18.25;;;16.55;;
25231;SDS011;13176;51.140;6.290;2022-12-11T10:56:31;18.33;;;16.50;;
25231;SDS011;13176;51.140;6.290;2022-12-11T10:58:59;18.50;;;16.90;;
25231;SDS011;13176;51.140;6.290;2022-12-11T11:01:26;18.45;;;16.65;;
25231;SDS011;13176;51.140;6.290;2022-12-11T11:04:14;17.67;;;15.88;;
25231;SDS011;13176;51.140;6.290;2022-12-11T11:06:46;18.45;;;16.70;;
25231;SDS011;13176;51.140;6.290;2022-12-11T11:09:28;19.77;;;17.80;;
25231;SDS011;13176;51.140;6.290;2022-12-11T11:12:00;19.83;;;18.00;;
25231;SDS011;13176;51.140;6.290;2022-12-11T11:14:33;17.70;;;16.10;;
25231;SDS011;13176;51.140;6.290;2022-12-11T11:16:59;18.58;;;16.73;;
25231;SDS011;13176;51.140;6.290;2022-12-11T11:19:28;19.02;;;17.13;;
25231;SDS011;13176;51.140;6.290;2022-12-11T11:22:07;17.88;;;16.08;;
25231;SDS011;13176;51.140;6.290;2022-12-11T11:24:40;17.95;;;16.15;;
25231;SDS011;13176;51.140;6.290;2022-12-11T11:27:17;17.77;;;16.10;;
25231;SDS011;13176;51.140;6.290;2022-12-11T11:29:55;16.63;;;15.02;;
25231;SDS011;13176;51.140;6.290;2022-12-11T11:32:26;16.42;;;14.93;;
25231;SDS011;13176;51.140;6.290;2022-12-11T11:35:31;19.02;;;15.55;;
25231;SDS011;13176;51.140;6.290;2022-12-11T11:40:53;14.98;;;13.57;;
25231;SDS011;13176;51.140;6.290;2022-12-11T11:43:50;15.55;;;14.05;;
25231;SDS011;13176;51.140;6.290;2022-12-11T11:46:28;14.25;;;12.95;;
25231;SDS011;13176;51.140;6.290;2022-12-11T11:51:54;16.45;;;14.88;;
25231;SDS011;13176;51.140;6.290;2022-12-11T11:54:45;16.70;;;15.20;;
25231;SDS011;13176;51.140;6.290;2022-12-11T11:57:34;16.77;;;14.83;;
25231;SDS011;13176;51.140;6.290;2022-12-11T12:00:20;15.45;;;13.93;;
25231;SDS011;13176;51.140;6.290;2022-12-11T12:02:59;14.90;;;13.40;;
25231;SDS011;13176;51.140;6.290;2022-12-11T12:08:16;13.05;;;11.93;;
25231;SDS011;13176;51.140;6.290;2022-12-11T12:14:24;12.45;;;11.15;;
25231;SDS011;13176;51.140;6.290;2022-12-11T12:19:50;12.05;;;10.95;;
25231;SDS011;13176;51.140;6.290;2022-12-11T12:28:04;13.38;;;12.07;;
25231;SDS011;13176;51.140;6.290;2022-12-11T12:33:44;12.63;;;11.43;;
25231;SDS011;13176;51.140;6.290;2022-12-11T12:36:16;12.23;;;11.02;;
25231;SDS011;13176;51.140;6.290;2022-12-11T12:38:59;12.95;;;11.57;;
25231;SDS011;13176;51.140;6.290;2022-12-11T12:41:40;12.52;;;11.25;;
25231;SDS011;13176;51.140;6.290;2022-12-11T12:44:21;12.65;;;11.20;;
25231;SDS011;13176;51.140;6.290;2022-12-11T12:47:08;12.73;;;11.60;;
25231;SDS011;13176;51.140;6.290;2022-12-11T12:52:14;13.63;;;12.38;;
25231;SDS011;13176;51.140;6.290;2022-12-11T12:54:47;13.67;;;12.47;;
25231;SDS011;13176;51.140;6.290;2022-12-11T12:57:37;12.95;;;11.85;;
25231;SDS011;13176;51.140;6.290;2022-12-11T13:00:10;15.05;;;13.57;;
25231;SDS011;13176;51.140;6.290;2022-12-11T13:02:46;14.07;;;12.88;;
25231;SDS011;13176;51.140;6.290;2022-12-11T13:05:19;14.18;;;12.95;;
25231;SDS011;13176;51.140;6.290;2022-12-11T13:07:54;14.32;;;12.88;;
25231;SDS011;13176;51.140;6.290;2022-12-11T13:10:24;15.65;;;14.10;;
25231;SDS011;13176;51.140;6.290;2022-12-11T13:12:53;15.40;;;13.95;;
25231;SDS011;13176;51.140;6.290;2022-12-11T13:15:31;13.43;;;12.13;;
25231;SDS011;13176;51.140;6.290;2022-12-11T13:18:05;13.10;;;11.88;;
25231;SDS011;13176;51.140;6.290;2022-12-11T13:20:59;13.23;;;12.02;;
25231;SDS011;13176;51.140;6.290;2022-12-11T13:23:27;12.73;;;11.63;;
25231;SDS011;13176;51.140;6.290;2022-12-11T13:26:00;11.85;;;10.80;;
25231;SDS011;13176;51.140;6.290;2022-12-11T13:31:05;13.48;;;12.25;;
25231;SDS011;13176;51.140;6.290;2022-12-11T13:33:51;13.20;;;11.50;;
25231;SDS011;13176;51.140;6.290;2022-12-11T13:38:51;12.80;;;11.63;;
25231;SDS011;13176;51.140;6.290;2022-12-11T13:41:20;14.02;;;12.52;;
25231;SDS011;13176;51.140;6.290;2022-12-11T13:43:47;13.98;;;12.60;;
25231;SDS011;13176;51.140;6.290;2022-12-11T13:46:18;13.93;;;12.55;;
25231;SDS011;13176;51.140;6.290;2022-12-11T13:49:00;14.60;;;13.10;;
25231;SDS011;13176;51.140;6.290;2022-12-11T13:51:29;12.82;;;11.65;;
25231;SDS011;13176;51.140;6.290;2022-12-11T13:54:01;13.90;;;12.50;;
25231;SDS011;13176;51.140;6.290;2022-12-11T13:56:52;14.70;;;13.30;;
25231;SDS011;13176;51.140;6.290;2022-12-11T13:59:41;14.40;;;13.00;;
25231;SDS011;13176;51.140;6.290;2022-12-11T14:02:17;15.02;;;13.63;;
25231;SDS011;13176;51.140;6.290;2022-12-11T14:04:48;15.50;;;13.82;;
25231;SDS011;13176;51.140;6.290;2022-12-11T14:07:20;15.18;;;13.77;;
25231;SDS011;13176;51.140;6.290;2022-12-11T14:09:51;15.98;;;14.23;;
25231;SDS011;13176;51.140;6.290;2022-12-11T14:12:22;15.23;;;13.65;;
25231;SDS011;13176;51.140;6.290;2022-12-11T14:14:57;15.80;;;14.25;;
25231;SDS011;13176;51.140;6.290;2022-12-11T14:17:28;14.60;;;13.10;;
25231;SDS011;13176;51.140;6.290;2022-12-11T14:19:58;15.75;;;14.18;;
25231;SDS011;13176;51.140;6.290;2022-12-11T14:22:28;14.70;;;13.20;;
25231;SDS011;13176;51.140;6.290;2022-12-11T14:25:00;15.80;;;14.30;;
25231;SDS011;13176;51.140;6.290;2022-12-11T14:27:30;14.32;;;13.02;;
25231;SDS011;13176;51.140;6.290;2022-12-11T14:29:56;14.65;;;13.13;;
25231;SDS011;13176;51.140;6.290;2022-12-11T14:32:37;14.95;;;13.45;;
25231;SDS011;13176;51.140;6.290;2022-12-11T14:35:17;14.90;;;13.45;;
25231;SDS011;13176;51.140;6.290;2022-12-11T14:37:50;15.15;;;13.73;;
25231;SDS011;13176;51.140;6.290;2022-12-11T14:40:19;15.90;;;14.32;;
25231;SDS011;13176;51.140;6.290;2022-12-11T14:42:58;17.13;;;15.32;;
25231;SDS011;13176;51.140;6.290;2022-12-11T14:45:35;17.52;;;15.73;;
25231;SDS011;13176;51.140;6.290;2022-12-11T14:48:12;15.98;;;14.30;;
25231;SDS011;13176;51.140;6.290;2022-12-11T14:50:47;15.43;;;14.02;;
25231;SDS011;13176;51.140;6.290;2022-12-11T14:53:21;16.77;;;15.18;;
25231;SDS011;13176;51.140;6.290;2022-12-11T14:55:50;16.80;;;15.25;;
25231;SDS011;13176;51.140;6.290;2022-12-11T14:58:22;15.10;;;13.73;;
25231;SDS011;13176;51.140;6.290;2022-12-11T15:01:27;15.57;;;13.88;;
25231;SDS011;13176;51.140;6.290;2022-12-11T15:06:42;14.48;;;13.18;;
25231;SDS011;13176;51.140;6.290;2022-12-11T15:09:18;16.20;;;14.65;;
25231;SDS011;13176;51.140;6.290;2022-12-11T15:11:54;15.35;;;13.98;;
25231;SDS011;13176;51.140;6.290;2022-12-11T15:14:22;16.10;;;14.60;;
25231;SDS011;13176;51.140;6.290;2022-12-11T15:16:51;16.65;;;14.95;;
25231;SDS011;13176;51.140;6.290;2022-12-11T15:21:53;16.95;;;15.25;;
25231;SDS011;13176;51.140;6.290;2022-12-11T15:24:24;15.68;;;14.18;;
25231;SDS011;13176;51.140;6.290;2022-12-11T15:27:00;17.58;;;15.82;;
25231;SDS011;13176;51.140;6.290;2022-12-11T15:34:49;18.25;;;16.65;;
25231;SDS011;13176;51.140;6.290;2022-12-11T15:39:48;16.35;;;14.85;;
25231;SDS011;13176;51.140;6.290;2022-12-11T15:42:17;16.30;;;14.85;;
25231;SDS011;13176;51.140;6.290;2022-12-11T15:44:50;17.02;;;15.43;;
25231;SDS011;13176;51.140;6.290;2022-12-11T15:47:20;16.65;;;15.23;;
25231;SDS011;13176;51.140;6.290;2022-12-11T15:49:52;18.13;;;16.43;;
25231;SDS011;13176;51.140;6.290;2022-12-11T15:52:20;17.42;;;15.80;;
25231;SDS011;13176;51.140;6.290;2022-12-11T15:54:47;16.83;;;15.30;;
25231;SDS011;13176;51.140;6.290;2022-12-11T15:57:15;16.75;;;15.05;;
25231;SDS011;13176;51.140;6.290;2022-12-11T15:59:44;17.13;;;15.52;;
25231;SDS011;13176;51.140;6.290;2022-12-11T16:02:14;17.02;;;15.32;;